createdAt,value
2022-11-29T00:02:24.323Z,100247.31
2022-11-29T00:07:26.135Z,100249.16
2022-11-29T00:12:27.797Z,100249.03
2022-11-29T00:17:29.443Z,100239.91
2022-11-29T00:22:31.060Z,100236.28
2022-11-29T00:27:32.881Z,100248.78
2022-11-29T00:32:35.675Z,100239.78
2022-11-29T00:37:37.503Z,100241.63
2022-11-29T00:42:39.143Z,100242.34
2022-11-29T00:47:40.842Z,100240.41
2022-11-29T00:52:42.491Z,100244.66
2022-11-29T00:57:44.436Z,100243.69
2022-11-29T01:02:46.232Z,100245.41
2022-11-29T01:07:47.948Z,100236.41
2022-11-29T01:12:49.803Z,100242.59
2022-11-29T01:17:51.504Z,100245.28
2022-11-29T01:22:53.257Z,100242.59
2022-11-29T01:27:54.892Z,100247.94
2022-11-29T01:32:56.551Z,100243.44
2022-11-29T01:37:58.251Z,100246.97
2022-11-29T01:42:59.947Z,100252.44
2022-11-29T01:48:01.635Z,100247.47
2022-11-29T01:53:03.558Z,100249.53
2022-11-29T01:58:06.763Z,100252.56
2022-11-29T02:03:11.452Z,100244.16
2022-11-29T02:08:14.782Z,100250.72
2022-11-29T02:13:26.103Z,100255.41
2022-11-29T02:18:49.646Z,100256.72
2022-11-29T02:24:20.633Z,100261.47
2022-11-29T02:29:39.394Z,100267.28
2022-11-29T02:34:59.178Z,100270.41
2022-11-29T02:40:34.626Z,100269.91
2022-11-29T02:45:39.995Z,100271.97
2022-11-29T02:50:50.813Z,100281.91
2022-11-29T02:56:27.429Z,100280.44
2022-11-29T03:01:42.178Z,100283.47
2022-11-29T03:06:52.762Z,100289.78
2022-11-29T03:12:16.589Z,100283.81
2022-11-29T03:17:31.613Z,100293.00
2022-11-29T03:22:55.422Z,100297.41
2022-11-29T03:28:13.875Z,100301.13
2022-11-29T03:33:21.508Z,100302.19
2022-11-29T03:38:32.723Z,100303.16
2022-11-29T03:44:07.305Z,100309.47
2022-11-29T03:49:22.952Z,100307.75
2022-11-29T03:54:57.349Z,100311.41
2022-11-29T04:00:07.390Z,100309.69
2022-11-29T04:05:36.603Z,100311.63
2022-11-29T04:11:08.990Z,100323.28
2022-11-29T04:16:19.369Z,100305.53
2022-11-29T04:21:26.971Z,100314.53
2022-11-29T04:26:58.898Z,100312.94
2022-11-29T04:32:11.600Z,100326.41
2022-11-29T04:37:16.161Z,100333.34
2022-11-29T04:42:34.429Z,100335.03
2022-11-29T04:47:39.207Z,100328.00
2022-11-29T04:52:59.138Z,100336.75
2022-11-29T04:58:16.136Z,100340.38
2022-11-29T05:03:26.291Z,100345.50
2022-11-29T05:09:18.106Z,100349.88
2022-11-29T05:14:36.389Z,100343.69
2022-11-29T05:20:01.656Z,100351.69
2022-11-29T05:25:14.493Z,100353.41
2022-11-29T05:30:19.977Z,100357.66
2022-11-29T05:35:43.335Z,100364.72
2022-11-29T05:41:04.921Z,100360.00
2022-11-29T05:46:19.390Z,100352.09
2022-11-29T05:52:19.002Z,100362.91
2022-11-29T05:57:35.662Z,100364.59
2022-11-29T06:02:59.411Z,100381.25
2022-11-29T06:08:04.387Z,100374.03
2022-11-29T06:13:22.011Z,100379.13
2022-11-29T06:19:08.631Z,100383.41
2022-11-29T06:24:26.254Z,100392.06
2022-11-29T06:29:32.981Z,100390.97
2022-11-29T06:34:58.986Z,100397.91
2022-11-29T06:40:00.976Z,100400.81
2022-11-29T06:45:03.632Z,100408.94
2022-11-29T06:50:37.756Z,100409.78
2022-11-29T06:56:03.225Z,100419.63
2022-11-29T07:01:20.398Z,100412.69
2022-11-29T07:06:27.432Z,100421.78
2022-11-29T07:11:29.199Z,100422.63
2022-11-29T07:16:40.358Z,100424.34
2022-11-29T07:22:00.600Z,100435.03
2022-11-29T07:27:07.610Z,100443.25
2022-11-29T07:32:22.984Z,100443.47
2022-11-29T07:37:52.549Z,100450.66
2022-11-29T07:43:18.130Z,100446.16
2022-11-29T07:48:19.803Z,100460.38
2022-11-29T07:53:22.778Z,100462.06
2022-11-29T07:58:24.478Z,100466.88
2022-11-29T08:03:26.173Z,100469.97
2022-11-29T08:08:27.823Z,100471.66
2022-11-29T08:13:29.434Z,100475.72
2022-11-29T08:18:31.074Z,100475.81
2022-11-29T08:23:32.882Z,100481.69
2022-11-29T08:28:34.508Z,100475.25
2022-11-29T08:33:38.113Z,100486.47
2022-11-29T08:38:39.862Z,100474.94
2022-11-29T08:43:41.926Z,100493.31
2022-11-29T08:48:43.598Z,100490.84
2022-11-29T08:53:46.621Z,100493.44
2022-11-29T08:58:48.338Z,100489.78
2022-11-29T09:04:07.128Z,100500.38
2022-11-29T09:09:08.864Z,100502.06
2022-11-29T09:14:15.129Z,100505.59
2022-11-29T09:19:16.874Z,100516.19
2022-11-29T09:24:19.643Z,100515.09
2022-11-29T09:29:21.411Z,100510.50
2022-11-29T09:34:23.152Z,100509.53
2022-11-29T09:39:24.794Z,100510.94
2022-11-29T09:44:47.673Z,100514.13
2022-11-29T09:50:12.781Z,100518.19
2022-11-29T09:55:33.226Z,100516.13
2022-11-29T10:00:38.652Z,100524.69
2022-11-29T10:05:50.043Z,100522.97
2022-11-29T10:10:58.718Z,100517.06
2022-11-29T10:16:11.651Z,100518.66
2022-11-29T10:21:18.023Z,100528.91
2022-11-29T10:26:20.807Z,100519.44
2022-11-29T10:31:32.255Z,100512.91
2022-11-29T10:36:46.856Z,100516.31
2022-11-29T10:41:55.995Z,100513.81
2022-11-29T10:47:00.318Z,100519.81
2022-11-29T10:52:02.028Z,100517.63
2022-11-29T10:57:09.444Z,100510.34
2022-11-29T11:02:19.086Z,100530.28
2022-11-29T11:07:30.945Z,100514.94
2022-11-29T11:12:34.368Z,100533.84
2022-11-29T11:17:37.715Z,100526.78
2022-11-29T11:22:40.633Z,100521.31
2022-11-29T11:27:42.347Z,100535.56
2022-11-29T11:33:22.340Z,100521.66
2022-11-29T11:38:24.440Z,100533.72
2022-11-29T11:43:26.219Z,100536.66
2022-11-29T11:48:28.306Z,100532.66
2022-11-29T11:53:35.794Z,100535.94
2022-11-29T11:58:40.033Z,100534.97
2022-11-29T12:04:10.420Z,100536.44
2022-11-29T12:09:45.138Z,100548.25
2022-11-29T12:14:58.965Z,100541.53
2022-11-29T12:20:31.407Z,100542.38
2022-11-29T12:25:39.599Z,100545.91
2022-11-29T12:30:59.115Z,100546.03
2022-11-29T12:36:16.140Z,100554.06
2022-11-29T12:41:53.987Z,100551.75
2022-11-29T12:52:52.351Z,100558.28
2022-11-29T12:58:18.597Z,100562.69
2022-11-29T13:03:31.048Z,100571.34
2022-11-29T13:08:56.559Z,100577.31
2022-11-29T13:14:40.939Z,100579.75
2022-11-29T13:19:41.676Z,100578.56
2022-11-29T13:24:47.811Z,100577.72
2022-11-29T13:29:50.172Z,100575.75
2022-11-29T13:34:52.381Z,100589.50
2022-11-29T13:40:06.107Z,100593.38
2022-11-29T13:45:32.886Z,100591.16
2022-11-29T13:50:43.618Z,100591.84
2022-11-29T13:56:02.740Z,100599.88
2022-11-29T14:01:09.946Z,100595.72
2022-11-29T14:06:21.709Z,100604.09
2022-11-29T14:11:42.110Z,100609.66
2022-11-29T14:16:43.737Z,100605.41
2022-11-29T14:22:05.484Z,100604.63
2022-11-29T14:27:07.456Z,100610.09
2022-11-29T14:32:20.637Z,100604.72
2022-11-29T14:37:34.367Z,100604.97
2022-11-29T14:42:46.223Z,100607.75
2022-11-29T14:47:49.087Z,100615.03
2022-11-29T14:52:51.662Z,100617.19
2022-11-29T14:58:03.688Z,100619.88
2022-11-29T15:03:17.304Z,100627.25
2022-11-29T15:08:35.891Z,100629.09
2022-11-29T15:13:40.163Z,100636.47
2022-11-29T15:19:03.058Z,100634.03
2022-11-29T15:24:16.251Z,100645.78
2022-11-29T15:29:21.537Z,100655.84
2022-11-29T15:34:31.437Z,100661.22
2022-11-29T15:39:35.489Z,100657.91
2022-11-29T15:44:37.211Z,100665.19
2022-11-29T15:49:38.858Z,100667.09
2022-11-29T15:54:44.305Z,100670.75
2022-11-29T15:59:50.299Z,100678.03
2022-11-29T16:04:54.541Z,100672.78
2022-11-29T16:10:06.084Z,100679.19
2022-11-29T16:15:31.001Z,100684.66
2022-11-29T16:20:32.746Z,100691.81
2022-11-29T16:25:37.536Z,100691.81
2022-11-29T16:30:41.977Z,100703.47
2022-11-29T16:35:43.665Z,100701.88
2022-11-29T16:41:00.808Z,100708.72
2022-11-29T16:46:26.343Z,100725.84
2022-11-29T16:51:39.874Z,100716.19
2022-11-29T16:56:41.676Z,100718.84
2022-11-29T17:01:43.387Z,100721.63
2022-11-29T17:06:45.111Z,100723.47
2022-11-29T17:11:46.940Z,100725.28
2022-11-29T17:16:49.782Z,100730.84
2022-11-29T17:21:52.674Z,100729.00
2022-11-29T17:26:54.298Z,100743.34
2022-11-29T17:31:56.031Z,100738.84
2022-11-29T17:36:57.720Z,100739.91
2022-11-29T17:41:59.427Z,100745.28
2022-11-29T17:47:01.450Z,100764.84
2022-11-29T17:52:03.377Z,100763.97
2022-11-29T17:57:05.117Z,100767.50
2022-11-29T18:02:06.896Z,100773.72
2022-11-29T18:07:08.734Z,100767.50
2022-11-29T18:12:10.492Z,100770.94
2022-11-29T18:17:12.303Z,100772.00
2022-11-29T18:22:13.979Z,100768.38
2022-11-29T18:27:15.754Z,100773.63
2022-11-29T18:32:17.387Z,100780.78
2022-11-29T18:37:38.951Z,100782.59
2022-11-29T18:42:40.802Z,100772.75
2022-11-29T18:47:42.756Z,100775.53
2022-11-29T18:52:44.483Z,100779.94
2022-11-29T18:57:49.537Z,100778.97
2022-11-29T19:02:51.287Z,100786.13
2022-11-29T19:07:53.002Z,100791.47
2022-11-29T19:12:54.937Z,100795.97
2022-11-29T19:17:56.723Z,100788.91
2022-11-29T19:23:00.665Z,100795.97
2022-11-29T19:28:02.580Z,100795.09
2022-11-29T19:33:04.611Z,100802.16
2022-11-29T19:38:06.338Z,100793.28
2022-11-29T19:43:07.943Z,100800.47
2022-11-29T19:48:09.651Z,100796.94
2022-11-29T19:53:11.349Z,100804.75
2022-11-29T19:58:13.029Z,100804.00
2022-11-29T20:03:14.779Z,100813.06
2022-11-29T20:08:21.147Z,100811.47
2022-11-29T20:13:23.172Z,100810.72
2022-11-29T20:18:30.269Z,100819.78
2022-11-29T20:23:31.993Z,100831.34
2022-11-29T20:28:36.759Z,100831.44
2022-11-29T20:33:40.342Z,100830.69
2022-11-29T20:38:46.047Z,100834.22
2022-11-29T20:43:55.865Z,100832.72
2022-11-29T20:49:01.785Z,100834.63
2022-11-29T20:54:10.618Z,100832.25
2022-11-29T20:59:12.379Z,100833.31
2022-11-29T21:04:16.710Z,100842.72
2022-11-29T21:09:20.525Z,100837.22
2022-11-29T21:14:22.727Z,100843.13
2022-11-29T21:19:25.719Z,100841.81
2022-11-29T21:24:43.169Z,100844.97
2022-11-29T21:29:45.243Z,100846.97
2022-11-29T21:34:47.157Z,100841.09
2022-11-29T21:39:51.471Z,100847.47
2022-11-29T21:44:53.095Z,100852.25
2022-11-29T21:49:56.706Z,100853.22
2022-11-29T21:54:58.369Z,100860.56
2022-11-29T22:00:00.088Z,100860.56
2022-11-29T22:05:01.822Z,100851.59
2022-11-29T22:10:09.918Z,100848.06
2022-11-29T22:15:19.081Z,100850.63
2022-11-29T22:20:23.407Z,100855.13
2022-11-29T22:25:25.121Z,100856.75
2022-11-29T22:30:28.385Z,100860.25
2022-11-29T22:35:30.051Z,100862.66
2022-11-29T22:40:31.816Z,100859.13
2022-11-29T22:45:33.556Z,100864.34
2022-11-29T22:50:35.639Z,100858.91
2022-11-29T22:55:37.284Z,100857.88
2022-11-29T23:00:44.005Z,100857.09
2022-11-29T23:05:45.710Z,100865.13
2022-11-29T23:10:57.387Z,100870.56
2022-11-29T23:15:58.981Z,100867.97
2022-11-29T23:21:04.744Z,100874.28
2022-11-29T23:26:07.712Z,100875.44
2022-11-29T23:31:09.327Z,100871.81
2022-11-29T23:36:12.246Z,100878.00
2022-11-29T23:41:14.045Z,100880.78
2022-11-29T23:46:21.546Z,100871.03
2022-11-29T23:51:23.209Z,100878.09
2022-11-29T23:56:24.856Z,100873.63
